sensor_id;sensor_type;location;lat;lon;timestamp;P1;durP1;ratioP1;P2;durP2;ratioP2
7931;SDS011;4011;49.424;10.894;2023-04-25T00:01:24;3.70;;;2.20;;
7931;SDS011;4011;49.424;10.894;2023-04-25T00:06:47;2.72;;;1.80;;
7931;SDS011;4011;49.424;10.894;2023-04-25T00:12:11;3.90;;;1.80;;
7931;SDS011;4011;49.424;10.894;2023-04-25T00:17:36;3.08;;;1.80;;
7931;SDS011;4011;49.424;10.894;2023-04-25T00:22:59;2.92;;;1.80;;
7931;SDS011;4011;49.424;10.894;2023-04-25T00:28:25;3.35;;;1.90;;
7931;SDS011;4011;49.424;10.894;2023-04-25T00:33:49;3.03;;;1.80;;
7931;SDS011;4011;49.424;10.894;2023-04-25T00:39:21;2.10;;;1.60;;
7931;SDS011;4011;49.424;10.894;2023-04-25T00:44:49;2.67;;;2.00;;
7931;SDS011;4011;49.424;10.894;2023-04-25T00:50:15;2.85;;;1.73;;
7931;SDS011;4011;49.424;10.894;2023-04-25T00:55:38;2.40;;;1.70;;
7931;SDS011;4011;49.424;10.894;2023-04-25T01:01:03;2.50;;;1.65;;
7931;SDS011;4011;49.424;10.894;2023-04-25T01:06:25;2.83;;;1.70;;
7931;SDS011;4011;49.424;10.894;2023-04-25T01:11:47;2.42;;;1.60;;
7931;SDS011;4011;49.424;10.894;2023-04-25T01:17:11;2.58;;;1.65;;
7931;SDS011;4011;49.424;10.894;2023-04-25T01:22:36;3.00;;;1.90;;
7931;SDS011;4011;49.424;10.894;2023-04-25T01:28:02;2.60;;;1.60;;
7931;SDS011;4011;49.424;10.894;2023-04-25T01:33:27;2.40;;;1.63;;
7931;SDS011;4011;49.424;10.894;2023-04-25T01:38:52;3.08;;;1.80;;
7931;SDS011;4011;49.424;10.894;2023-04-25T01:44:14;2.72;;;1.60;;
7931;SDS011;4011;49.424;10.894;2023-04-25T01:49:39;2.95;;;1.60;;
7931;SDS011;4011;49.424;10.894;2023-04-25T01:55:06;2.72;;;1.88;;
7931;SDS011;4011;49.424;10.894;2023-04-25T02:00:27;2.63;;;1.70;;
7931;SDS011;4011;49.424;10.894;2023-04-25T02:05:49;2.33;;;1.65;;
7931;SDS011;4011;49.424;10.894;2023-04-25T02:11:13;2.42;;;1.50;;
7931;SDS011;4011;49.424;10.894;2023-04-25T02:16:37;2.50;;;1.50;;
7931;SDS011;4011;49.424;10.894;2023-04-25T02:21:59;2.45;;;1.65;;
7931;SDS011;4011;49.424;10.894;2023-04-25T02:27:23;2.40;;;1.60;;
7931;SDS011;4011;49.424;10.894;2023-04-25T02:32:49;2.88;;;1.60;;
7931;SDS011;4011;49.424;10.894;2023-04-25T02:38:18;2.35;;;1.60;;
7931;SDS011;4011;49.424;10.894;2023-04-25T02:43:42;2.70;;;1.70;;
7931;SDS011;4011;49.424;10.894;2023-04-25T02:49:03;2.58;;;1.75;;
7931;SDS011;4011;49.424;10.894;2023-04-25T02:54:25;2.42;;;1.60;;
7931;SDS011;4011;49.424;10.894;2023-04-25T02:59:48;2.08;;;1.50;;
7931;SDS011;4011;49.424;10.894;2023-04-25T03:05:18;2.97;;;1.73;;
7931;SDS011;4011;49.424;10.894;2023-04-25T03:10:41;2.67;;;1.50;;
7931;SDS011;4011;49.424;10.894;2023-04-25T03:16:05;2.28;;;1.60;;
7931;SDS011;4011;49.424;10.894;2023-04-25T03:21:29;2.72;;;1.75;;
7931;SDS011;4011;49.424;10.894;2023-04-25T03:26:51;2.60;;;1.75;;
7931;SDS011;4011;49.424;10.894;2023-04-25T03:32:17;2.88;;;1.75;;
7931;SDS011;4011;49.424;10.894;2023-04-25T03:37:41;2.65;;;1.65;;
7931;SDS011;4011;49.424;10.894;2023-04-25T03:43:05;2.25;;;1.70;;
7931;SDS011;4011;49.424;10.894;2023-04-25T03:48:29;2.50;;;1.60;;
7931;SDS011;4011;49.424;10.894;2023-04-25T03:53:54;2.42;;;1.60;;
7931;SDS011;4011;49.424;10.894;2023-04-25T03:59:16;2.30;;;1.60;;
7931;SDS011;4011;49.424;10.894;2023-04-25T04:04:39;2.33;;;1.50;;
7931;SDS011;4011;49.424;10.894;2023-04-25T04:10:01;2.30;;;1.50;;
7931;SDS011;4011;49.424;10.894;2023-04-25T04:15:25;2.92;;;1.60;;
7931;SDS011;4011;49.424;10.894;2023-04-25T04:20:53;4.45;;;1.80;;
7931;SDS011;4011;49.424;10.894;2023-04-25T04:26:18;3.30;;;1.80;;
7931;SDS011;4011;49.424;10.894;2023-04-25T04:31:47;3.95;;;1.80;;
7931;SDS011;4011;49.424;10.894;2023-04-25T04:37:12;2.92;;;1.80;;
7931;SDS011;4011;49.424;10.894;2023-04-25T04:42:54;3.30;;;2.10;;
7931;SDS011;4011;49.424;10.894;2023-04-25T04:48:22;3.10;;;2.10;;
7931;SDS011;4011;49.424;10.894;2023-04-25T04:53:45;3.42;;;2.00;;
7931;SDS011;4011;49.424;10.894;2023-04-25T04:59:08;2.72;;;1.88;;
7931;SDS011;4011;49.424;10.894;2023-04-25T05:04:35;2.60;;;1.88;;
7931;SDS011;4011;49.424;10.894;2023-04-25T05:09:58;3.40;;;1.95;;
7931;SDS011;4011;49.424;10.894;2023-04-25T05:15:20;3.00;;;1.90;;
7931;SDS011;4011;49.424;10.894;2023-04-25T05:20:44;2.90;;;1.88;;
7931;SDS011;4011;49.424;10.894;2023-04-25T05:26:16;2.60;;;1.70;;
7931;SDS011;4011;49.424;10.894;2023-04-25T05:37:02;2.75;;;1.67;;
7931;SDS011;4011;49.424;10.894;2023-04-25T05:42:28;3.00;;;1.80;;
7931;SDS011;4011;49.424;10.894;2023-04-25T05:47:50;3.05;;;1.90;;
7931;SDS011;4011;49.424;10.894;2023-04-25T05:53:25;2.75;;;1.70;;
7931;SDS011;4011;49.424;10.894;2023-04-25T05:58:56;3.65;;;1.92;;
7931;SDS011;4011;49.424;10.894;2023-04-25T06:04:31;3.25;;;1.80;;
7931;SDS011;4011;49.424;10.894;2023-04-25T06:10:01;3.00;;;2.03;;
7931;SDS011;4011;49.424;10.894;2023-04-25T06:15:28;2.95;;;1.92;;
7931;SDS011;4011;49.424;10.894;2023-04-25T06:20:53;2.63;;;1.80;;
7931;SDS011;4011;49.424;10.894;2023-04-25T06:26:19;2.65;;;1.98;;
7931;SDS011;4011;49.424;10.894;2023-04-25T06:31:43;3.22;;;1.85;;
7931;SDS011;4011;49.424;10.894;2023-04-25T06:37:06;3.13;;;2.00;;
7931;SDS011;4011;49.424;10.894;2023-04-25T06:42:30;2.78;;;1.80;;
7931;SDS011;4011;49.424;10.894;2023-04-25T06:47:57;4.03;;;1.80;;
7931;SDS011;4011;49.424;10.894;2023-04-25T06:58:52;4.45;;;1.75;;
7931;SDS011;4011;49.424;10.894;2023-04-25T07:04:15;3.88;;;1.95;;
7931;SDS011;4011;49.424;10.894;2023-04-25T07:09:37;4.35;;;2.17;;
7931;SDS011;4011;49.424;10.894;2023-04-25T07:14:59;3.22;;;1.73;;
7931;SDS011;4011;49.424;10.894;2023-04-25T07:20:27;3.45;;;2.10;;
7931;SDS011;4011;49.424;10.894;2023-04-25T07:26:01;4.40;;;2.00;;
7931;SDS011;4011;49.424;10.894;2023-04-25T07:31:24;3.80;;;2.20;;
7931;SDS011;4011;49.424;10.894;2023-04-25T07:36:47;3.42;;;2.15;;
7931;SDS011;4011;49.424;10.894;2023-04-25T07:42:09;4.35;;;1.90;;
7931;SDS011;4011;49.424;10.894;2023-04-25T07:47:31;4.18;;;2.10;;
7931;SDS011;4011;49.424;10.894;2023-04-25T07:52:54;3.22;;;1.90;;
7931;SDS011;4011;49.424;10.894;2023-04-25T07:58:18;4.07;;;2.00;;
7931;SDS011;4011;49.424;10.894;2023-04-25T08:03:42;3.85;;;2.40;;
7931;SDS011;4011;49.424;10.894;2023-04-25T08:09:07;3.95;;;2.20;;
7931;SDS011;4011;49.424;10.894;2023-04-25T08:14:29;3.58;;;1.90;;
7931;SDS011;4011;49.424;10.894;2023-04-25T08:19:55;3.35;;;1.92;;
7931;SDS011;4011;49.424;10.894;2023-04-25T08:25:21;2.55;;;1.90;;
7931;SDS011;4011;49.424;10.894;2023-04-25T08:36:07;3.28;;;2.00;;
7931;SDS011;4011;49.424;10.894;2023-04-25T08:41:33;3.35;;;1.80;;
7931;SDS011;4011;49.424;10.894;2023-04-25T08:46:55;3.13;;;1.85;;
7931;SDS011;4011;49.424;10.894;2023-04-25T08:52:16;2.92;;;2.20;;
7931;SDS011;4011;49.424;10.894;2023-04-25T08:57:43;3.25;;;1.83;;
7931;SDS011;4011;49.424;10.894;2023-04-25T09:03:05;3.05;;;1.77;;
7931;SDS011;4011;49.424;10.894;2023-04-25T09:08:27;4.78;;;2.35;;
7931;SDS011;4011;49.424;10.894;2023-04-25T09:13:49;3.17;;;2.00;;
7931;SDS011;4011;49.424;10.894;2023-04-25T09:19:32;4.10;;;2.05;;
7931;SDS011;4011;49.424;10.894;2023-04-25T09:24:56;2.42;;;1.67;;
7931;SDS011;4011;49.424;10.894;2023-04-25T09:30:28;3.15;;;2.00;;
7931;SDS011;4011;49.424;10.894;2023-04-25T09:35:49;3.50;;;1.98;;
7931;SDS011;4011;49.424;10.894;2023-04-25T09:41:22;3.75;;;1.90;;
7931;SDS011;4011;49.424;10.894;2023-04-25T09:46:46;3.53;;;2.00;;
7931;SDS011;4011;49.424;10.894;2023-04-25T09:52:13;3.90;;;1.92;;
7931;SDS011;4011;49.424;10.894;2023-04-25T09:57:37;2.92;;;1.85;;
7931;SDS011;4011;49.424;10.894;2023-04-25T10:03:01;2.92;;;1.90;;
7931;SDS011;4011;49.424;10.894;2023-04-25T10:08:25;3.25;;;1.80;;
7931;SDS011;4011;49.424;10.894;2023-04-25T10:13:49;3.42;;;2.05;;
7931;SDS011;4011;49.424;10.894;2023-04-25T10:19:12;2.47;;;1.70;;
7931;SDS011;4011;49.424;10.894;2023-04-25T10:24:34;2.33;;;1.77;;
7931;SDS011;4011;49.424;10.894;2023-04-25T10:30:03;3.40;;;2.30;;
7931;SDS011;4011;49.424;10.894;2023-04-25T10:35:27;2.67;;;1.92;;
7931;SDS011;4011;49.424;10.894;2023-04-25T10:41:02;3.80;;;2.00;;
7931;SDS011;4011;49.424;10.894;2023-04-25T10:46:24;4.25;;;2.00;;
7931;SDS011;4011;49.424;10.894;2023-04-25T10:51:47;3.92;;;2.17;;
7931;SDS011;4011;49.424;10.894;2023-04-25T11:02:45;4.00;;;1.90;;
7931;SDS011;4011;49.424;10.894;2023-04-25T11:08:10;3.35;;;2.00;;
7931;SDS011;4011;49.424;10.894;2023-04-25T11:13:32;3.05;;;2.00;;
7931;SDS011;4011;49.424;10.894;2023-04-25T11:18:56;4.30;;;1.92;;
7931;SDS011;4011;49.424;10.894;2023-04-25T11:24:19;2.72;;;1.92;;
7931;SDS011;4011;49.424;10.894;2023-04-25T11:29:40;4.38;;;2.00;;
7931;SDS011;4011;49.424;10.894;2023-04-25T11:35:05;3.10;;;2.20;;
7931;SDS011;4011;49.424;10.894;2023-04-25T11:40:31;5.25;;;1.92;;
7931;SDS011;4011;49.424;10.894;2023-04-25T11:45:53;3.33;;;2.08;;
7931;SDS011;4011;49.424;10.894;2023-04-25T11:51:14;2.58;;;1.75;;
7931;SDS011;4011;49.424;10.894;2023-04-25T11:56:37;3.00;;;1.80;;
7931;SDS011;4011;49.424;10.894;2023-04-25T12:02:01;3.83;;;2.25;;
7931;SDS011;4011;49.424;10.894;2023-04-25T12:07:28;2.95;;;1.73;;
7931;SDS011;4011;49.424;10.894;2023-04-25T12:12:51;2.55;;;1.80;;
7931;SDS011;4011;49.424;10.894;2023-04-25T12:18:13;3.50;;;2.10;;
7931;SDS011;4011;49.424;10.894;2023-04-25T12:23:35;2.83;;;1.80;;
7931;SDS011;4011;49.424;10.894;2023-04-25T12:29:00;2.70;;;1.95;;
7931;SDS011;4011;49.424;10.894;2023-04-25T12:34:22;2.00;;;1.50;;
7931;SDS011;4011;49.424;10.894;2023-04-25T12:39:44;2.90;;;1.70;;
7931;SDS011;4011;49.424;10.894;2023-04-25T12:45:08;3.13;;;1.90;;
7931;SDS011;4011;49.424;10.894;2023-04-25T12:50:29;3.53;;;1.95;;
7931;SDS011;4011;49.424;10.894;2023-04-25T12:55:51;2.78;;;1.70;;
7931;SDS011;4011;49.424;10.894;2023-04-25T13:01:17;3.47;;;1.70;;
7931;SDS011;4011;49.424;10.894;2023-04-25T13:06:39;4.90;;;1.85;;
7931;SDS011;4011;49.424;10.894;2023-04-25T13:12:00;3.60;;;1.70;;
7931;SDS011;4011;49.424;10.894;2023-04-25T13:17:33;3.53;;;1.73;;
7931;SDS011;4011;49.424;10.894;2023-04-25T13:23:03;3.30;;;1.80;;
7931;SDS011;4011;49.424;10.894;2023-04-25T13:28:30;3.30;;;1.80;;
7931;SDS011;4011;49.424;10.894;2023-04-25T13:33:56;2.90;;;1.83;;
7931;SDS011;4011;49.424;10.894;2023-04-25T13:39:17;4.32;;;2.00;;
7931;SDS011;4011;49.424;10.894;2023-04-25T13:44:38;2.90;;;1.83;;
7931;SDS011;4011;49.424;10.894;2023-04-25T13:50:01;2.35;;;1.65;;
7931;SDS011;4011;49.424;10.894;2023-04-25T13:55:23;3.72;;;1.83;;
7931;SDS011;4011;49.424;10.894;2023-04-25T14:00:44;3.20;;;1.70;;
7931;SDS011;4011;49.424;10.894;2023-04-25T14:06:08;3.50;;;2.00;;
7931;SDS011;4011;49.424;10.894;2023-04-25T14:11:33;3.00;;;1.70;;
7931;SDS011;4011;49.424;10.894;2023-04-25T14:17:09;3.08;;;1.73;;
7931;SDS011;4011;49.424;10.894;2023-04-25T14:22:34;3.00;;;1.92;;
7931;SDS011;4011;49.424;10.894;2023-04-25T14:27:57;2.90;;;1.80;;
7931;SDS011;4011;49.424;10.894;2023-04-25T14:33:19;3.15;;;1.67;;
7931;SDS011;4011;49.424;10.894;2023-04-25T14:38:42;3.28;;;1.90;;
7931;SDS011;4011;49.424;10.894;2023-04-25T14:44:03;2.60;;;1.90;;
7931;SDS011;4011;49.424;10.894;2023-04-25T14:49:26;4.10;;;1.90;;
7931;SDS011;4011;49.424;10.894;2023-04-25T14:54:49;3.10;;;1.88;;
7931;SDS011;4011;49.424;10.894;2023-04-25T15:00:11;3.22;;;2.05;;
7931;SDS011;4011;49.424;10.894;2023-04-25T15:05:36;3.42;;;1.75;;
7931;SDS011;4011;49.424;10.894;2023-04-25T15:10:59;3.63;;;2.10;;
7931;SDS011;4011;49.424;10.894;2023-04-25T15:16:23;2.80;;;2.03;;
7931;SDS011;4011;49.424;10.894;2023-04-25T15:21:46;3.42;;;2.03;;
7931;SDS011;4011;49.424;10.894;2023-04-25T15:27:08;3.72;;;2.20;;
7931;SDS011;4011;49.424;10.894;2023-04-25T15:32:33;3.10;;;2.10;;
7931;SDS011;4011;49.424;10.894;2023-04-25T15:37:55;2.80;;;1.98;;
7931;SDS011;4011;49.424;10.894;2023-04-25T15:43:20;3.25;;;2.13;;
7931;SDS011;4011;49.424;10.894;2023-04-25T15:48:42;4.35;;;2.33;;
7931;SDS011;4011;49.424;10.894;2023-04-25T15:54:06;3.75;;;2.03;;
7931;SDS011;4011;49.424;10.894;2023-04-25T15:59:31;3.35;;;2.15;;
7931;SDS011;4011;49.424;10.894;2023-04-25T16:04:52;3.63;;;2.22;;
7931;SDS011;4011;49.424;10.894;2023-04-25T16:10:17;3.53;;;2.20;;
7931;SDS011;4011;49.424;10.894;2023-04-25T16:15:42;3.83;;;2.20;;
7931;SDS011;4011;49.424;10.894;2023-04-25T16:21:03;3.13;;;2.10;;
7931;SDS011;4011;49.424;10.894;2023-04-25T16:26:35;3.05;;;2.10;;
7931;SDS011;4011;49.424;10.894;2023-04-25T16:31:58;3.17;;;2.05;;
7931;SDS011;4011;49.424;10.894;2023-04-25T16:37:19;3.00;;;1.90;;
7931;SDS011;4011;49.424;10.894;2023-04-25T16:42:42;4.20;;;2.25;;
7931;SDS011;4011;49.424;10.894;2023-04-25T16:48:08;3.53;;;2.10;;
7931;SDS011;4011;49.424;10.894;2023-04-25T16:53:30;3.55;;;2.20;;
7931;SDS011;4011;49.424;10.894;2023-04-25T16:58:52;3.85;;;2.50;;
7931;SDS011;4011;49.424;10.894;2023-04-25T17:04:15;3.53;;;2.30;;
7931;SDS011;4011;49.424;10.894;2023-04-25T17:09:40;3.35;;;2.50;;
7931;SDS011;4011;49.424;10.894;2023-04-25T17:15:02;4.53;;;2.60;;
7931;SDS011;4011;49.424;10.894;2023-04-25T17:20:25;3.58;;;2.25;;
7931;SDS011;4011;49.424;10.894;2023-04-25T17:25:47;4.68;;;2.50;;
7931;SDS011;4011;49.424;10.894;2023-04-25T17:31:08;3.30;;;2.30;;
7931;SDS011;4011;49.424;10.894;2023-04-25T17:36:37;3.22;;;2.25;;
7931;SDS011;4011;49.424;10.894;2023-04-25T17:42:00;3.50;;;2.20;;
7931;SDS011;4011;49.424;10.894;2023-04-25T17:47:21;3.42;;;2.20;;
7931;SDS011;4011;49.424;10.894;2023-04-25T17:52:44;3.17;;;2.22;;
7931;SDS011;4011;49.424;10.894;2023-04-25T17:58:07;3.83;;;2.10;;
7931;SDS011;4011;49.424;10.894;2023-04-25T18:03:30;3.20;;;2.20;;
7931;SDS011;4011;49.424;10.894;2023-04-25T18:08:55;4.20;;;2.22;;
7931;SDS011;4011;49.424;10.894;2023-04-25T18:14:17;3.78;;;2.35;;
7931;SDS011;4011;49.424;10.894;2023-04-25T18:19:39;3.65;;;2.05;;
7931;SDS011;4011;49.424;10.894;2023-04-25T18:25:03;3.38;;;2.13;;
7931;SDS011;4011;49.424;10.894;2023-04-25T18:30:29;3.25;;;1.92;;
7931;SDS011;4011;49.424;10.894;2023-04-25T18:36:02;5.18;;;2.45;;
7931;SDS011;4011;49.424;10.894;2023-04-25T18:41:25;3.88;;;2.25;;
7931;SDS011;4011;49.424;10.894;2023-04-25T18:46:46;3.70;;;2.20;;
7931;SDS011;4011;49.424;10.894;2023-04-25T18:52:08;3.40;;;2.08;;
7931;SDS011;4011;49.424;10.894;2023-04-25T18:57:33;4.43;;;2.22;;
7931;SDS011;4011;49.424;10.894;2023-04-25T19:02:55;4.00;;;2.17;;
7931;SDS011;4011;49.424;10.894;2023-04-25T19:08:22;4.07;;;2.17;;
7931;SDS011;4011;49.424;10.894;2023-04-25T19:13:44;3.30;;;2.10;;
7931;SDS011;4011;49.424;10.894;2023-04-25T19:19:06;4.05;;;2.03;;
7931;SDS011;4011;49.424;10.894;2023-04-25T19:24:28;4.03;;;2.03;;
7931;SDS011;4011;49.424;10.894;2023-04-25T19:29:53;2.92;;;1.98;;
7931;SDS011;4011;49.424;10.894;2023-04-25T19:35:18;3.83;;;2.10;;
7931;SDS011;4011;49.424;10.894;2023-04-25T19:40:41;4.55;;;2.00;;
7931;SDS011;4011;49.424;10.894;2023-04-25T19:46:04;6.65;;;2.20;;
7931;SDS011;4011;49.424;10.894;2023-04-25T19:51:25;4.47;;;2.38;;
7931;SDS011;4011;49.424;10.894;2023-04-25T19:56:47;4.13;;;2.00;;
7931;SDS011;4011;49.424;10.894;2023-04-25T20:02:10;3.97;;;2.17;;
7931;SDS011;4011;49.424;10.894;2023-04-25T20:07:31;3.30;;;2.08;;
7931;SDS011;4011;49.424;10.894;2023-04-25T20:12:53;3.95;;;2.15;;
7931;SDS011;4011;49.424;10.894;2023-04-25T20:18:16;3.40;;;2.20;;
7931;SDS011;4011;49.424;10.894;2023-04-25T20:23:38;3.33;;;2.13;;
7931;SDS011;4011;49.424;10.894;2023-04-25T20:28:59;4.00;;;2.30;;
7931;SDS011;4011;49.424;10.894;2023-04-25T20:34:22;4.15;;;2.15;;
7931;SDS011;4011;49.424;10.894;2023-04-25T20:39:44;3.50;;;1.92;;
7931;SDS011;4011;49.424;10.894;2023-04-25T20:45:06;3.83;;;2.22;;
7931;SDS011;4011;49.424;10.894;2023-04-25T20:50:33;3.25;;;2.17;;
7931;SDS011;4011;49.424;10.894;2023-04-25T20:55:54;4.15;;;2.22;;
7931;SDS011;4011;49.424;10.894;2023-04-25T21:01:16;3.45;;;2.10;;
7931;SDS011;4011;49.424;10.894;2023-04-25T21:06:41;4.20;;;2.15;;
7931;SDS011;4011;49.424;10.894;2023-04-25T21:12:03;4.78;;;2.55;;
7931;SDS011;4011;49.424;10.894;2023-04-25T21:17:25;5.30;;;2.33;;
7931;SDS011;4011;49.424;10.894;2023-04-25T21:22:49;4.25;;;2.53;;
7931;SDS011;4011;49.424;10.894;2023-04-25T21:28:10;4.28;;;2.20;;
7931;SDS011;4011;49.424;10.894;2023-04-25T21:33:32;3.40;;;2.17;;
7931;SDS011;4011;49.424;10.894;2023-04-25T21:38:55;4.45;;;2.38;;
7931;SDS011;4011;49.424;10.894;2023-04-25T21:44:16;3.42;;;2.10;;
7931;SDS011;4011;49.424;10.894;2023-04-25T21:49:38;5.03;;;2.47;;
7931;SDS011;4011;49.424;10.894;2023-04-25T21:55:06;4.55;;;2.25;;
7931;SDS011;4011;49.424;10.894;2023-04-25T22:00:28;4.68;;;2.40;;
7931;SDS011;4011;49.424;10.894;2023-04-25T22:05:51;5.93;;;2.60;;
7931;SDS011;4011;49.424;10.894;2023-04-25T22:11:13;4.85;;;2.40;;
7931;SDS011;4011;49.424;10.894;2023-04-25T22:16:39;3.92;;;2.30;;
7931;SDS011;4011;49.424;10.894;2023-04-25T22:22:03;4.00;;;2.40;;
7931;SDS011;4011;49.424;10.894;2023-04-25T22:27:26;4.55;;;2.40;;
7931;SDS011;4011;49.424;10.894;2023-04-25T22:32:49;3.58;;;2.08;;
7931;SDS011;4011;49.424;10.894;2023-04-25T22:38:10;4.57;;;2.20;;
7931;SDS011;4011;49.424;10.894;2023-04-25T22:43:33;4.20;;;2.50;;
7931;SDS011;4011;49.424;10.894;2023-04-25T22:48:55;4.43;;;2.30;;
7931;SDS011;4011;49.424;10.894;2023-04-25T22:54:16;4.43;;;2.30;;
7931;SDS011;4011;49.424;10.894;2023-04-25T22:59:39;4.20;;;2.50;;
7931;SDS011;4011;49.424;10.894;2023-04-25T23:05:03;3.70;;;2.10;;
7931;SDS011;4011;49.424;10.894;2023-04-25T23:10:26;4.20;;;2.40;;
7931;SDS011;4011;49.424;10.894;2023-04-25T23:15:49;3.67;;;2.17;;
7931;SDS011;4011;49.424;10.894;2023-04-25T23:21:11;3.88;;;2.30;;
7931;SDS011;4011;49.424;10.894;2023-04-25T23:26:41;5.13;;;2.47;;
7931;SDS011;4011;49.424;10.894;2023-04-25T23:32:12;3.40;;;2.33;;
7931;SDS011;4011;49.424;10.894;2023-04-25T23:37:34;4.60;;;2.10;;
7931;SDS011;4011;49.424;10.894;2023-04-25T23:43:02;4.32;;;2.40;;
7931;SDS011;4011;49.424;10.894;2023-04-25T23:48:26;3.33;;;2.00;;
7931;SDS011;4011;49.424;10.894;2023-04-25T23:53:48;3.40;;;2.00;;
7931;SDS011;4011;49.424;10.894;2023-04-25T23:59:12;4.22;;;2.33;;
